createdAt,value
2022-10-01T00:04:44.420Z,79.27
2022-10-01T00:09:47.872Z,79.14
2022-10-01T00:14:51.018Z,79.24
2022-10-01T00:19:53.913Z,79.47
2022-10-01T00:24:56.729Z,79.60
2022-10-01T00:30:00.382Z,79.09
2022-10-01T00:35:04.114Z,79.44
2022-10-01T00:40:07.535Z,79.50
2022-10-01T00:45:13.079Z,79.40
2022-10-01T00:50:21.410Z,79.67
2022-10-01T00:55:28.935Z,79.79
2022-10-01T01:00:32.283Z,80.38
2022-10-01T01:05:35.525Z,80.66
2022-10-01T01:11:02.020Z,80.77
2022-10-01T01:16:39.827Z,81.04
2022-10-01T01:21:48.846Z,80.37
2022-10-01T01:27:19.772Z,81.09
2022-10-01T01:32:48.832Z,81.01
2022-10-01T01:37:58.567Z,80.62
2022-10-01T01:43:08.291Z,80.80
2022-10-01T01:48:13.069Z,80.92
2022-10-01T01:53:16.199Z,80.96
2022-10-01T01:58:19.626Z,81.05
2022-10-01T02:03:26.300Z,81.17
2022-10-01T02:08:48.015Z,81.03
2022-10-01T02:14:21.024Z,80.72
2022-10-01T02:19:57.335Z,80.72
2022-10-01T02:25:04.220Z,80.02
2022-10-01T02:30:11.008Z,79.86
2022-10-01T02:35:21.436Z,79.71
2022-10-01T02:40:27.987Z,80.11
2022-10-01T02:45:35.423Z,80.08
2022-10-01T02:50:48.108Z,80.03
2022-10-01T02:55:53.594Z,79.72
2022-10-01T03:00:57.034Z,79.02
2022-10-01T03:06:00.216Z,78.82
2022-10-01T03:11:03.294Z,78.97
2022-10-01T03:16:06.497Z,78.88
2022-10-01T03:21:09.515Z,79.45
2022-10-01T03:26:12.723Z,79.09
2022-10-01T03:31:15.353Z,78.92
2022-10-01T03:36:18.561Z,78.84
2022-10-01T03:41:21.600Z,79.33
2022-10-01T03:46:26.294Z,79.41
2022-10-01T03:51:30.352Z,78.89
2022-10-01T03:56:33.709Z,78.74
2022-10-01T04:01:36.802Z,78.80
2022-10-01T04:06:40.674Z,79.17
2022-10-01T04:11:46.901Z,78.86
2022-10-01T04:16:53.036Z,79.02
2022-10-01T04:21:56.286Z,78.59
2022-10-01T04:26:59.400Z,78.44
2022-10-01T04:32:04.018Z,78.31
2022-10-01T04:37:06.665Z,78.09
2022-10-01T04:42:10.874Z,78.43
2022-10-01T04:47:13.743Z,78.86
2022-10-01T04:52:16.963Z,79.16
2022-10-01T04:57:23.333Z,79.20
2022-10-01T05:02:26.350Z,79.05
2022-10-01T05:07:29.243Z,79.53
2022-10-01T05:12:35.592Z,79.78
2022-10-01T05:17:39.084Z,79.92
2022-10-01T05:22:41.592Z,79.98
2022-10-01T05:27:44.031Z,80.04
2022-10-01T05:32:57.591Z,80.23
2022-10-01T05:38:03.076Z,80.68
2022-10-01T05:43:05.416Z,80.92
2022-10-01T05:48:09.253Z,81.02
2022-10-01T05:53:14.109Z,81.26
2022-10-01T05:58:17.773Z,81.48
2022-10-01T06:03:22.666Z,82.61
2022-10-01T06:08:27.021Z,82.99
2022-10-01T06:13:29.478Z,83.26
2022-10-01T06:18:32.176Z,83.45
2022-10-01T06:23:36.633Z,83.22
2022-10-01T06:28:39.313Z,83.82
2022-10-01T06:33:42.063Z,83.67
2022-10-01T06:38:48.539Z,83.85
2022-10-01T06:43:51.156Z,83.90
2022-10-01T06:48:56.271Z,83.89
2022-10-01T06:53:58.654Z,83.62
2022-10-01T06:59:01.061Z,84.09
2022-10-01T07:04:03.795Z,83.93
2022-10-01T07:09:07.480Z,84.11
2022-10-01T07:14:10.575Z,84.26
2022-10-01T07:19:13.114Z,84.04
2022-10-01T07:24:16.707Z,83.59
2022-10-01T07:29:20.073Z,83.18
2022-10-01T07:34:24.849Z,83.55
2022-10-01T07:39:27.447Z,83.71
2022-10-01T07:44:31.169Z,83.62
2022-10-01T07:49:33.772Z,83.54
2022-10-01T07:54:39.380Z,83.69
2022-10-01T07:59:42.646Z,83.48
2022-10-01T08:05:08.764Z,83.30
2022-10-01T08:10:14.502Z,83.26
2022-10-01T08:15:17.700Z,83.65
2022-10-01T08:20:21.322Z,83.22
2022-10-01T08:25:28.459Z,83.00
2022-10-01T08:30:31.206Z,83.20
2022-10-01T08:35:39.202Z,83.15
2022-10-01T08:40:47.019Z,83.08
2022-10-01T08:45:54.469Z,82.93
2022-10-01T08:51:05.619Z,83.09
2022-10-01T08:56:19.135Z,82.98
2022-10-01T09:01:22.172Z,82.80
2022-10-01T09:06:28.061Z,82.71
2022-10-01T09:11:41.574Z,82.56
2022-10-01T09:16:56.039Z,82.73
2022-10-01T09:22:04.493Z,82.35
2022-10-01T09:27:15.256Z,81.75
2022-10-01T09:32:25.255Z,81.80
2022-10-01T09:37:45.413Z,81.88
2022-10-01T09:42:51.839Z,81.84
2022-10-01T09:48:04.598Z,81.66
2022-10-01T09:53:16.651Z,80.44
2022-10-01T09:58:24.365Z,79.98
2022-10-01T10:03:30.760Z,79.71
2022-10-01T10:08:40.311Z,78.59
2022-10-01T10:13:55.362Z,77.83
2022-10-01T10:19:02.504Z,77.78
2022-10-01T10:24:06.287Z,77.19
2022-10-01T10:29:30.815Z,76.78
2022-10-01T10:34:39.574Z,76.67
2022-10-01T10:39:47.020Z,76.24
2022-10-01T10:44:54.550Z,75.21
2022-10-01T10:50:07.707Z,75.36
2022-10-01T10:55:19.091Z,74.95
2022-10-01T11:00:25.811Z,73.93
2022-10-01T11:05:33.494Z,73.34
2022-10-01T11:10:43.606Z,73.09
2022-10-01T11:16:28.522Z,71.58
2022-10-01T11:21:53.615Z,70.70
2022-10-01T11:27:18.288Z,70.23
2022-10-01T11:32:45.699Z,70.29
2022-10-01T11:38:03.693Z,69.56
2022-10-01T11:43:30.281Z,69.24
2022-10-01T11:48:50.963Z,69.25
2022-10-01T11:54:03.708Z,69.19
2022-10-01T11:59:21.145Z,69.26
2022-10-01T12:04:40.241Z,69.06
2022-10-01T12:09:55.013Z,68.72
2022-10-01T12:15:23.026Z,68.67
2022-10-01T12:20:48.498Z,68.69
2022-10-01T12:26:04.028Z,68.95
2022-10-01T12:31:25.334Z,69.08
2022-10-01T12:36:37.785Z,69.31
2022-10-01T12:42:16.653Z,69.41
2022-10-01T12:47:28.176Z,69.38
2022-10-01T12:53:04.747Z,69.36
2022-10-01T12:58:30.300Z,69.57
2022-10-01T13:03:46.945Z,69.56
2022-10-01T13:09:19.715Z,69.92
2022-10-01T13:14:22.620Z,70.15
2022-10-01T13:19:46.205Z,70.57
2022-10-01T13:25:01.464Z,70.69
2022-10-01T13:30:22.600Z,70.89
2022-10-01T13:35:56.393Z,70.94
2022-10-01T13:41:03.517Z,71.16
2022-10-01T13:46:09.215Z,71.24
2022-10-01T13:51:19.936Z,71.16
2022-10-01T13:56:34.951Z,71.01
2022-10-01T14:01:42.126Z,71.03
2022-10-01T14:07:07.075Z,71.38
2022-10-01T14:12:39.748Z,71.34
2022-10-01T14:17:45.070Z,71.56
2022-10-01T14:23:09.205Z,71.73
2022-10-01T14:28:48.038Z,72.07
2022-10-01T14:34:19.334Z,72.25
2022-10-01T14:39:24.076Z,72.28
2022-10-01T14:44:36.507Z,72.30
2022-10-01T14:49:38.139Z,72.28
2022-10-01T14:54:49.286Z,72.50
2022-10-01T14:59:53.045Z,72.60
2022-10-01T15:04:58.028Z,72.65
2022-10-01T15:10:08.328Z,72.64
2022-10-01T15:15:34.422Z,72.68
2022-10-01T15:20:38.976Z,72.95
2022-10-01T15:25:44.957Z,73.00
2022-10-01T15:30:47.528Z,73.05
2022-10-01T15:35:49.484Z,73.17
2022-10-01T15:41:13.895Z,73.17
2022-10-01T15:46:24.958Z,73.28
2022-10-01T15:51:28.027Z,73.53
2022-10-01T15:56:30.084Z,73.39
2022-10-01T16:01:38.824Z,73.56
2022-10-01T16:06:47.807Z,73.69
2022-10-01T16:12:02.108Z,73.64
2022-10-01T16:17:17.037Z,73.69
2022-10-01T16:22:20.313Z,74.07
2022-10-01T16:27:28.737Z,74.29
2022-10-01T16:32:32.148Z,74.40
2022-10-01T16:37:35.667Z,74.63
2022-10-01T16:42:41.761Z,75.01
2022-10-01T16:47:46.645Z,75.35
2022-10-01T16:52:55.218Z,75.39
2022-10-01T16:57:57.559Z,75.46
2022-10-01T17:03:00.875Z,75.65
2022-10-01T17:08:12.259Z,75.84
2022-10-01T17:13:39.889Z,76.20
2022-10-01T17:24:49.649Z,76.57
2022-10-01T17:30:17.030Z,76.69
2022-10-01T17:35:41.136Z,76.58
2022-10-01T17:40:56.733Z,76.90
2022-10-01T17:46:08.885Z,76.96
2022-10-01T17:51:18.718Z,76.96
2022-10-01T17:56:26.997Z,77.13
2022-10-01T18:01:33.335Z,77.62
2022-10-01T18:06:40.900Z,77.45
2022-10-01T18:11:44.743Z,77.27
2022-10-01T18:16:50.914Z,77.58
2022-10-01T18:21:54.823Z,77.62
2022-10-01T18:26:59.413Z,78.03
2022-10-01T18:32:12.531Z,78.13
2022-10-01T18:37:37.803Z,77.57
2022-10-01T18:42:57.305Z,77.23
2022-10-01T18:48:11.010Z,77.08
2022-10-01T18:53:28.719Z,77.07
2022-10-01T18:58:46.795Z,77.29
2022-10-01T19:04:18.678Z,77.44
2022-10-01T19:09:43.942Z,77.27
2022-10-01T19:15:05.657Z,77.57
2022-10-01T19:20:14.365Z,77.38
2022-10-01T19:25:35.754Z,77.53
2022-10-01T19:30:57.031Z,77.74
2022-10-01T19:36:00.634Z,77.86
2022-10-01T19:41:23.759Z,77.76
2022-10-01T19:46:37.014Z,77.58
2022-10-01T19:51:45.398Z,77.47
2022-10-01T19:56:57.746Z,77.59
2022-10-01T20:02:16.075Z,77.77
2022-10-01T20:07:46.873Z,78.09
2022-10-01T20:12:56.225Z,78.30
2022-10-01T20:18:14.384Z,78.29
2022-10-01T20:23:42.516Z,78.51
2022-10-01T20:29:08.279Z,78.58
2022-10-01T20:34:30.225Z,78.72
2022-10-01T20:39:48.421Z,78.76
2022-10-01T20:44:54.318Z,78.95
2022-10-01T20:50:12.326Z,78.97
2022-10-01T20:55:28.767Z,79.32
2022-10-01T21:00:33.897Z,79.41
2022-10-01T21:05:52.474Z,79.74
2022-10-01T21:10:59.333Z,79.98
2022-10-01T21:16:29.593Z,80.14
2022-10-01T21:21:51.372Z,79.96
2022-10-01T21:27:04.404Z,79.99
2022-10-01T21:32:47.252Z,80.08
2022-10-01T21:38:28.876Z,80.25
2022-10-01T21:44:00.884Z,80.21
2022-10-01T21:49:33.161Z,79.96
2022-10-01T21:54:49.289Z,80.20
2022-10-01T21:59:51.423Z,80.22
2022-10-01T22:04:59.089Z,80.19
2022-10-01T22:10:07.863Z,80.15
2022-10-01T22:15:39.285Z,80.16
2022-10-01T22:20:43.428Z,80.38
2022-10-01T22:25:58.272Z,80.51
2022-10-01T22:31:02.941Z,80.71
2022-10-01T22:36:15.502Z,80.71
2022-10-01T22:41:45.538Z,80.89
2022-10-01T22:47:27.716Z,80.76
2022-10-01T22:53:16.018Z,81.05
2022-10-01T22:58:38.704Z,80.81
2022-10-01T23:04:25.382Z,81.19
2022-10-01T23:09:40.010Z,81.27
2022-10-01T23:15:00.988Z,81.21
2022-10-01T23:20:30.601Z,81.07
2022-10-01T23:25:49.728Z,81.14
2022-10-01T23:31:17.561Z,81.43
2022-10-01T23:36:45.201Z,81.52
2022-10-01T23:41:59.351Z,81.42
2022-10-01T23:47:12.384Z,81.58
2022-10-01T23:52:19.676Z,81.59
2022-10-01T23:57:35.352Z,81.66
